sensor_id;sensor_type;location;lat;lon;timestamp;P1;durP1;ratioP1;P2;durP2;ratioP2
70455;SDS011;57916;51.996;5.180;2022-08-05T00:01:25;7.00;;;2.30;;
70455;SDS011;57916;51.996;5.180;2022-08-05T00:03:54;5.78;;;2.05;;
70455;SDS011;57916;51.996;5.180;2022-08-05T00:06:22;4.65;;;1.70;;
70455;SDS011;57916;51.996;5.180;2022-08-05T00:08:58;8.15;;;2.05;;
70455;SDS011;57916;51.996;5.180;2022-08-05T00:11:26;5.97;;;1.93;;
70455;SDS011;57916;51.996;5.180;2022-08-05T00:14:00;4.95;;;1.90;;
70455;SDS011;57916;51.996;5.180;2022-08-05T00:16:42;6.07;;;2.17;;
70455;SDS011;57916;51.996;5.180;2022-08-05T00:19:19;9.38;;;2.05;;
70455;SDS011;57916;51.996;5.180;2022-08-05T00:21:50;11.37;;;2.00;;
70455;SDS011;57916;51.996;5.180;2022-08-05T00:24:19;5.78;;;2.00;;
70455;SDS011;57916;51.996;5.180;2022-08-05T00:26:55;5.50;;;1.80;;
70455;SDS011;57916;51.996;5.180;2022-08-05T00:29:24;6.70;;;2.08;;
70455;SDS011;57916;51.996;5.180;2022-08-05T00:31:53;6.77;;;2.43;;
70455;SDS011;57916;51.996;5.180;2022-08-05T00:34:41;5.40;;;1.95;;
70455;SDS011;57916;51.996;5.180;2022-08-05T00:37:29;7.82;;;1.85;;
70455;SDS011;57916;51.996;5.180;2022-08-05T00:40:17;5.07;;;2.03;;
70455;SDS011;57916;51.996;5.180;2022-08-05T00:42:54;10.18;;;2.13;;
70455;SDS011;57916;51.996;5.180;2022-08-05T00:45:22;8.63;;;2.10;;
70455;SDS011;57916;51.996;5.180;2022-08-05T00:48:05;5.53;;;2.10;;
70455;SDS011;57916;51.996;5.180;2022-08-05T00:50:38;6.32;;;2.08;;
70455;SDS011;57916;51.996;5.180;2022-08-05T00:53:09;4.72;;;2.10;;
70455;SDS011;57916;51.996;5.180;2022-08-05T00:55:56;6.40;;;2.10;;
70455;SDS011;57916;51.996;5.180;2022-08-05T00:58:23;11.48;;;2.15;;
70455;SDS011;57916;51.996;5.180;2022-08-05T01:00:53;6.68;;;1.90;;
70455;SDS011;57916;51.996;5.180;2022-08-05T01:03:20;6.40;;;2.08;;
70455;SDS011;57916;51.996;5.180;2022-08-05T01:05:51;7.95;;;2.00;;
70455;SDS011;57916;51.996;5.180;2022-08-05T01:08:20;7.27;;;1.80;;
70455;SDS011;57916;51.996;5.180;2022-08-05T01:14:13;5.70;;;2.08;;
70455;SDS011;57916;51.996;5.180;2022-08-05T01:20:02;4.43;;;1.77;;
70455;SDS011;57916;51.996;5.180;2022-08-05T01:22:44;6.93;;;2.00;;
70455;SDS011;57916;51.996;5.180;2022-08-05T01:31:00;2.50;;;1.70;;
70455;SDS011;57916;51.996;5.180;2022-08-05T01:33:43;7.90;;;1.98;;
70455;SDS011;57916;51.996;5.180;2022-08-05T01:36:21;5.78;;;2.10;;
70455;SDS011;57916;51.996;5.180;2022-08-05T01:38:53;5.78;;;1.80;;
70455;SDS011;57916;51.996;5.180;2022-08-05T01:41:25;5.80;;;2.05;;
70455;SDS011;57916;51.996;5.180;2022-08-05T01:43:57;4.15;;;1.65;;
70455;SDS011;57916;51.996;5.180;2022-08-05T01:46:26;7.30;;;1.70;;
70455;SDS011;57916;51.996;5.180;2022-08-05T01:49:10;7.50;;;1.80;;
70455;SDS011;57916;51.996;5.180;2022-08-05T01:51:51;5.77;;;2.00;;
70455;SDS011;57916;51.996;5.180;2022-08-05T01:54:25;6.20;;;1.90;;
70455;SDS011;57916;51.996;5.180;2022-08-05T01:56:58;3.85;;;1.70;;
70455;SDS011;57916;51.996;5.180;2022-08-05T01:59:46;5.97;;;1.80;;
70455;SDS011;57916;51.996;5.180;2022-08-05T02:02:14;9.43;;;2.15;;
70455;SDS011;57916;51.996;5.180;2022-08-05T02:04:51;3.97;;;1.75;;
70455;SDS011;57916;51.996;5.180;2022-08-05T02:07:22;5.55;;;1.95;;
70455;SDS011;57916;51.996;5.180;2022-08-05T02:09:55;6.15;;;1.95;;
70455;SDS011;57916;51.996;5.180;2022-08-05T02:12:33;4.05;;;1.70;;
70455;SDS011;57916;51.996;5.180;2022-08-05T02:15:16;4.07;;;1.80;;
70455;SDS011;57916;51.996;5.180;2022-08-05T02:18:06;6.25;;;1.77;;
70455;SDS011;57916;51.996;5.180;2022-08-05T02:20:59;6.13;;;1.75;;
70455;SDS011;57916;51.996;5.180;2022-08-05T02:23:49;6.47;;;1.75;;
70455;SDS011;57916;51.996;5.180;2022-08-05T02:26:23;7.53;;;2.10;;
70455;SDS011;57916;51.996;5.180;2022-08-05T02:28:54;6.50;;;1.87;;
70455;SDS011;57916;51.996;5.180;2022-08-05T02:31:25;8.65;;;1.98;;
70455;SDS011;57916;51.996;5.180;2022-08-05T02:33:54;6.60;;;1.83;;
70455;SDS011;57916;51.996;5.180;2022-08-05T02:36:25;5.40;;;1.90;;
70455;SDS011;57916;51.996;5.180;2022-08-05T02:38:57;5.80;;;2.10;;
70455;SDS011;57916;51.996;5.180;2022-08-05T02:41:27;5.00;;;2.25;;
70455;SDS011;57916;51.996;5.180;2022-08-05T02:44:16;5.88;;;2.00;;
70455;SDS011;57916;51.996;5.180;2022-08-05T02:46:45;5.55;;;1.73;;
70455;SDS011;57916;51.996;5.180;2022-08-05T02:49:26;4.67;;;1.83;;
70455;SDS011;57916;51.996;5.180;2022-08-05T02:52:04;6.50;;;1.90;;
70455;SDS011;57916;51.996;5.180;2022-08-05T02:54:37;6.93;;;1.98;;
70455;SDS011;57916;51.996;5.180;2022-08-05T02:57:09;5.40;;;1.90;;
70455;SDS011;57916;51.996;5.180;2022-08-05T02:59:58;5.00;;;1.70;;
70455;SDS011;57916;51.996;5.180;2022-08-05T03:02:27;6.57;;;1.70;;
70455;SDS011;57916;51.996;5.180;2022-08-05T03:04:59;5.53;;;1.63;;
70455;SDS011;57916;51.996;5.180;2022-08-05T03:07:28;8.15;;;1.65;;
70455;SDS011;57916;51.996;5.180;2022-08-05T03:10:16;7.38;;;1.88;;
70455;SDS011;57916;51.996;5.180;2022-08-05T03:12:50;4.32;;;1.63;;
70455;SDS011;57916;51.996;5.180;2022-08-05T03:15:19;4.57;;;1.77;;
70455;SDS011;57916;51.996;5.180;2022-08-05T03:17:50;4.38;;;1.60;;
70455;SDS011;57916;51.996;5.180;2022-08-05T03:20:20;4.80;;;1.92;;
70455;SDS011;57916;51.996;5.180;2022-08-05T03:22:49;9.18;;;2.00;;
70455;SDS011;57916;51.996;5.180;2022-08-05T03:25:16;7.85;;;2.03;;
70455;SDS011;57916;51.996;5.180;2022-08-05T03:28:06;7.55;;;2.03;;
70455;SDS011;57916;51.996;5.180;2022-08-05T03:30:34;6.72;;;1.90;;
70455;SDS011;57916;51.996;5.180;2022-08-05T03:33:06;7.15;;;1.88;;
70455;SDS011;57916;51.996;5.180;2022-08-05T03:35:33;3.30;;;1.77;;
70455;SDS011;57916;51.996;5.180;2022-08-05T03:38:09;5.30;;;1.90;;
70455;SDS011;57916;51.996;5.180;2022-08-05T03:40:40;4.07;;;2.00;;
70455;SDS011;57916;51.996;5.180;2022-08-05T03:43:12;8.10;;;2.70;;
70455;SDS011;57916;51.996;5.180;2022-08-05T03:46:00;4.93;;;1.73;;
70455;SDS011;57916;51.996;5.180;2022-08-05T03:48:28;5.97;;;1.90;;
70455;SDS011;57916;51.996;5.180;2022-08-05T03:54:34;4.03;;;1.95;;
70455;SDS011;57916;51.996;5.180;2022-08-05T03:57:33;5.30;;;1.80;;
70455;SDS011;57916;51.996;5.180;2022-08-05T04:00:11;4.80;;;2.00;;
70455;SDS011;57916;51.996;5.180;2022-08-05T04:02:42;4.70;;;1.80;;
70455;SDS011;57916;51.996;5.180;2022-08-05T04:05:23;6.80;;;1.85;;
70455;SDS011;57916;51.996;5.180;2022-08-05T04:07:53;4.57;;;2.08;;
70455;SDS011;57916;51.996;5.180;2022-08-05T04:10:27;7.82;;;2.03;;
70455;SDS011;57916;51.996;5.180;2022-08-05T04:13:03;5.75;;;1.77;;
70455;SDS011;57916;51.996;5.180;2022-08-05T04:15:32;4.22;;;1.85;;
70455;SDS011;57916;51.996;5.180;2022-08-05T04:18:05;5.90;;;1.80;;
70455;SDS011;57916;51.996;5.180;2022-08-05T04:20:37;8.15;;;1.90;;
70455;SDS011;57916;51.996;5.180;2022-08-05T04:23:07;5.57;;;1.90;;
70455;SDS011;57916;51.996;5.180;2022-08-05T04:25:41;3.17;;;1.52;;
70455;SDS011;57916;51.996;5.180;2022-08-05T04:28:26;4.13;;;1.75;;
70455;SDS011;57916;51.996;5.180;2022-08-05T04:30:57;7.27;;;1.63;;
70455;SDS011;57916;51.996;5.180;2022-08-05T04:33:26;5.90;;;1.48;;
70455;SDS011;57916;51.996;5.180;2022-08-05T04:36:14;6.27;;;1.50;;
70455;SDS011;57916;51.996;5.180;2022-08-05T04:39:01;4.63;;;1.65;;
70455;SDS011;57916;51.996;5.180;2022-08-05T04:41:28;2.72;;;1.30;;
70455;SDS011;57916;51.996;5.180;2022-08-05T04:44:03;4.35;;;1.38;;
70455;SDS011;57916;51.996;5.180;2022-08-05T04:46:35;3.08;;;1.40;;
70455;SDS011;57916;51.996;5.180;2022-08-05T04:49:04;5.28;;;1.40;;
70455;SDS011;57916;51.996;5.180;2022-08-05T04:51:39;3.50;;;1.20;;
70455;SDS011;57916;51.996;5.180;2022-08-05T04:54:08;4.78;;;1.38;;
70455;SDS011;57916;51.996;5.180;2022-08-05T04:56:37;4.38;;;1.38;;
70455;SDS011;57916;51.996;5.180;2022-08-05T04:59:05;3.22;;;1.30;;
70455;SDS011;57916;51.996;5.180;2022-08-05T05:01:50;3.78;;;1.42;;
70455;SDS011;57916;51.996;5.180;2022-08-05T05:04:38;5.10;;;1.50;;
70455;SDS011;57916;51.996;5.180;2022-08-05T05:07:15;3.73;;;1.40;;
70455;SDS011;57916;51.996;5.180;2022-08-05T05:09:43;3.05;;;1.20;;
70455;SDS011;57916;51.996;5.180;2022-08-05T05:12:10;4.45;;;1.20;;
70455;SDS011;57916;51.996;5.180;2022-08-05T05:14:38;3.47;;;1.30;;
70455;SDS011;57916;51.996;5.180;2022-08-05T05:17:14;1.80;;;1.30;;
70455;SDS011;57916;51.996;5.180;2022-08-05T05:19:54;3.28;;;1.30;;
70455;SDS011;57916;51.996;5.180;2022-08-05T05:22:22;4.47;;;1.48;;
70455;SDS011;57916;51.996;5.180;2022-08-05T05:24:52;3.67;;;1.40;;
70455;SDS011;57916;51.996;5.180;2022-08-05T05:27:25;3.30;;;1.30;;
70455;SDS011;57916;51.996;5.180;2022-08-05T05:30:14;3.72;;;1.20;;
70455;SDS011;57916;51.996;5.180;2022-08-05T05:33:00;3.22;;;1.48;;
70455;SDS011;57916;51.996;5.180;2022-08-05T05:35:42;1.85;;;1.38;;
70455;SDS011;57916;51.996;5.180;2022-08-05T05:38:13;4.80;;;1.30;;
70455;SDS011;57916;51.996;5.180;2022-08-05T05:40:47;2.88;;;1.40;;
70455;SDS011;57916;51.996;5.180;2022-08-05T05:43:17;6.35;;;1.45;;
70455;SDS011;57916;51.996;5.180;2022-08-05T05:46:05;4.97;;;1.45;;
70455;SDS011;57916;51.996;5.180;2022-08-05T05:48:41;4.60;;;1.40;;
70455;SDS011;57916;51.996;5.180;2022-08-05T05:51:09;5.70;;;1.65;;
70455;SDS011;57916;51.996;5.180;2022-08-05T05:53:41;6.18;;;1.48;;
70455;SDS011;57916;51.996;5.180;2022-08-05T05:56:19;4.78;;;1.33;;
70455;SDS011;57916;51.996;5.180;2022-08-05T05:58:59;4.25;;;1.30;;
70455;SDS011;57916;51.996;5.180;2022-08-05T06:01:33;2.60;;;1.10;;
70455;SDS011;57916;51.996;5.180;2022-08-05T06:04:07;2.92;;;1.30;;
70455;SDS011;57916;51.996;5.180;2022-08-05T06:06:38;2.58;;;1.17;;
70455;SDS011;57916;51.996;5.180;2022-08-05T06:09:07;3.13;;;1.30;;
70455;SDS011;57916;51.996;5.180;2022-08-05T06:11:43;4.18;;;1.40;;
70455;SDS011;57916;51.996;5.180;2022-08-05T06:14:25;3.10;;;1.10;;
70455;SDS011;57916;51.996;5.180;2022-08-05T06:16:54;2.25;;;1.20;;
70455;SDS011;57916;51.996;5.180;2022-08-05T06:19:22;4.25;;;1.00;;
70455;SDS011;57916;51.996;5.180;2022-08-05T06:22:00;3.55;;;1.08;;
70455;SDS011;57916;51.996;5.180;2022-08-05T06:24:32;5.65;;;1.20;;
70455;SDS011;57916;51.996;5.180;2022-08-05T06:27:00;5.78;;;1.00;;
70455;SDS011;57916;51.996;5.180;2022-08-05T06:29:29;4.10;;;1.20;;
70455;SDS011;57916;51.996;5.180;2022-08-05T06:32:16;2.08;;;1.02;;
70455;SDS011;57916;51.996;5.180;2022-08-05T06:34:51;3.03;;;0.85;;
70455;SDS011;57916;51.996;5.180;2022-08-05T06:37:21;2.45;;;0.95;;
70455;SDS011;57916;51.996;5.180;2022-08-05T06:40:09;3.20;;;0.80;;
70455;SDS011;57916;51.996;5.180;2022-08-05T06:42:37;1.85;;;0.90;;
70455;SDS011;57916;51.996;5.180;2022-08-05T06:45:05;3.42;;;1.30;;
70455;SDS011;57916;51.996;5.180;2022-08-05T06:47:34;3.93;;;0.83;;
70455;SDS011;57916;51.996;5.180;2022-08-05T06:50:21;2.53;;;0.87;;
70455;SDS011;57916;51.996;5.180;2022-08-05T06:52:49;2.20;;;1.00;;
70455;SDS011;57916;51.996;5.180;2022-08-05T06:55:24;3.00;;;0.80;;
70455;SDS011;57916;51.996;5.180;2022-08-05T06:57:52;3.55;;;0.80;;
70455;SDS011;57916;51.996;5.180;2022-08-05T07:00:36;1.65;;;0.70;;
70455;SDS011;57916;51.996;5.180;2022-08-05T07:03:06;3.05;;;0.70;;
70455;SDS011;57916;51.996;5.180;2022-08-05T07:05:35;2.80;;;0.60;;
70455;SDS011;57916;51.996;5.180;2022-08-05T07:08:03;1.23;;;0.67;;
70455;SDS011;57916;51.996;5.180;2022-08-05T07:10:30;4.38;;;0.80;;
70455;SDS011;57916;51.996;5.180;2022-08-05T07:12:58;3.17;;;0.50;;
70455;SDS011;57916;51.996;5.180;2022-08-05T07:16:03;4.25;;;1.00;;
70455;SDS011;57916;51.996;5.180;2022-08-05T07:19:09;1.90;;;0.75;;
70455;SDS011;57916;51.996;5.180;2022-08-05T07:21:40;3.92;;;0.60;;
70455;SDS011;57916;51.996;5.180;2022-08-05T07:24:26;1.58;;;0.60;;
70455;SDS011;57916;51.996;5.180;2022-08-05T07:26:55;1.02;;;0.50;;
70455;SDS011;57916;51.996;5.180;2022-08-05T07:29:22;1.53;;;0.67;;
70455;SDS011;57916;51.996;5.180;2022-08-05T07:32:09;1.95;;;0.50;;
70455;SDS011;57916;51.996;5.180;2022-08-05T07:34:39;2.00;;;0.70;;
70455;SDS011;57916;51.996;5.180;2022-08-05T07:37:07;0.90;;;0.40;;
70455;SDS011;57916;51.996;5.180;2022-08-05T07:39:37;4.03;;;0.65;;
70455;SDS011;57916;51.996;5.180;2022-08-05T07:42:23;3.87;;;0.60;;
70455;SDS011;57916;51.996;5.180;2022-08-05T07:44:59;1.85;;;0.40;;
70455;SDS011;57916;51.996;5.180;2022-08-05T07:47:26;2.50;;;0.68;;
70455;SDS011;57916;51.996;5.180;2022-08-05T07:50:07;0.60;;;0.43;;
70455;SDS011;57916;51.996;5.180;2022-08-05T07:52:38;1.10;;;0.47;;
70455;SDS011;57916;51.996;5.180;2022-08-05T07:55:09;2.10;;;0.50;;
70455;SDS011;57916;51.996;5.180;2022-08-05T07:57:56;2.15;;;0.60;;
70455;SDS011;57916;51.996;5.180;2022-08-05T08:00:28;1.30;;;0.50;;
70455;SDS011;57916;51.996;5.180;2022-08-05T08:02:56;2.10;;;0.43;;
70455;SDS011;57916;51.996;5.180;2022-08-05T08:05:41;2.40;;;0.57;;
70455;SDS011;57916;51.996;5.180;2022-08-05T08:08:15;1.65;;;0.50;;
70455;SDS011;57916;51.996;5.180;2022-08-05T08:10:45;2.28;;;0.32;;
70455;SDS011;57916;51.996;5.180;2022-08-05T08:13:14;0.52;;;0.30;;
70455;SDS011;57916;51.996;5.180;2022-08-05T08:15:54;1.25;;;0.40;;
70455;SDS011;57916;51.996;5.180;2022-08-05T08:18:41;3.40;;;0.40;;
70455;SDS011;57916;51.996;5.180;2022-08-05T08:21:15;1.17;;;0.40;;
70455;SDS011;57916;51.996;5.180;2022-08-05T08:23:43;3.33;;;0.50;;
70455;SDS011;57916;51.996;5.180;2022-08-05T08:26:30;2.17;;;0.40;;
70455;SDS011;57916;51.996;5.180;2022-08-05T08:28:58;1.95;;;0.40;;
70455;SDS011;57916;51.996;5.180;2022-08-05T08:31:45;1.27;;;0.40;;
70455;SDS011;57916;51.996;5.180;2022-08-05T08:34:13;1.58;;;0.60;;
70455;SDS011;57916;51.996;5.180;2022-08-05T08:36:44;3.50;;;0.40;;
70455;SDS011;57916;51.996;5.180;2022-08-05T08:39:20;0.68;;;0.40;;
70455;SDS011;57916;51.996;5.180;2022-08-05T08:41:49;1.35;;;0.38;;
70455;SDS011;57916;51.996;5.180;2022-08-05T08:44:27;2.10;;;0.40;;
70455;SDS011;57916;51.996;5.180;2022-08-05T08:47:16;2.22;;;0.40;;
70455;SDS011;57916;51.996;5.180;2022-08-05T08:50:08;2.10;;;0.60;;
70455;SDS011;57916;51.996;5.180;2022-08-05T08:53:04;2.30;;;0.40;;
70455;SDS011;57916;51.996;5.180;2022-08-05T08:55:38;0.70;;;0.40;;
70455;SDS011;57916;51.996;5.180;2022-08-05T08:58:25;2.00;;;0.30;;
70455;SDS011;57916;51.996;5.180;2022-08-05T09:01:09;0.60;;;0.47;;
70455;SDS011;57916;51.996;5.180;2022-08-05T09:03:49;3.20;;;0.43;;
70455;SDS011;57916;51.996;5.180;2022-08-05T09:06:23;1.40;;;0.40;;
70455;SDS011;57916;51.996;5.180;2022-08-05T09:08:56;0.57;;;0.43;;
70455;SDS011;57916;51.996;5.180;2022-08-05T09:11:26;2.77;;;0.50;;
70455;SDS011;57916;51.996;5.180;2022-08-05T09:14:13;0.65;;;0.52;;
70455;SDS011;57916;51.996;5.180;2022-08-05T09:17:00;1.80;;;0.40;;
70455;SDS011;57916;51.996;5.180;2022-08-05T09:19:57;2.47;;;0.43;;
70455;SDS011;57916;51.996;5.180;2022-08-05T09:22:38;3.35;;;0.40;;
70455;SDS011;57916;51.996;5.180;2022-08-05T09:25:33;2.97;;;0.40;;
70455;SDS011;57916;51.996;5.180;2022-08-05T09:28:20;3.28;;;0.47;;
70455;SDS011;57916;51.996;5.180;2022-08-05T09:31:03;1.88;;;0.50;;
70455;SDS011;57916;51.996;5.180;2022-08-05T09:36:48;3.17;;;0.60;;
70455;SDS011;57916;51.996;5.180;2022-08-05T09:39:24;1.00;;;0.60;;
70455;SDS011;57916;51.996;5.180;2022-08-05T09:42:15;3.05;;;0.55;;
70455;SDS011;57916;51.996;5.180;2022-08-05T09:44:53;2.95;;;0.50;;
70455;SDS011;57916;51.996;5.180;2022-08-05T09:47:41;1.67;;;0.40;;
70455;SDS011;57916;51.996;5.180;2022-08-05T09:50:21;1.20;;;0.45;;
70455;SDS011;57916;51.996;5.180;2022-08-05T09:53:04;2.03;;;0.50;;
70455;SDS011;57916;51.996;5.180;2022-08-05T09:55:34;0.57;;;0.30;;
70455;SDS011;57916;51.996;5.180;2022-08-05T09:58:21;1.08;;;0.50;;
70455;SDS011;57916;51.996;5.180;2022-08-05T10:00:59;3.70;;;0.30;;
70455;SDS011;57916;51.996;5.180;2022-08-05T10:03:53;2.85;;;0.68;;
70455;SDS011;57916;51.996;5.180;2022-08-05T10:06:26;1.75;;;0.35;;
70455;SDS011;57916;51.996;5.180;2022-08-05T10:08:53;4.15;;;0.47;;
70455;SDS011;57916;51.996;5.180;2022-08-05T10:11:22;2.78;;;0.50;;
70455;SDS011;57916;51.996;5.180;2022-08-05T10:13:56;2.35;;;0.50;;
70455;SDS011;57916;51.996;5.180;2022-08-05T10:16:33;2.50;;;0.40;;
70455;SDS011;57916;51.996;5.180;2022-08-05T10:19:18;0.90;;;0.40;;
70455;SDS011;57916;51.996;5.180;2022-08-05T10:21:56;0.82;;;0.40;;
70455;SDS011;57916;51.996;5.180;2022-08-05T10:24:24;4.00;;;0.50;;
70455;SDS011;57916;51.996;5.180;2022-08-05T10:26:53;0.87;;;0.40;;
70455;SDS011;57916;51.996;5.180;2022-08-05T10:29:26;0.60;;;0.40;;
70455;SDS011;57916;51.996;5.180;2022-08-05T10:32:15;1.23;;;0.50;;
70455;SDS011;57916;51.996;5.180;2022-08-05T10:35:02;2.50;;;0.50;;
70455;SDS011;57916;51.996;5.180;2022-08-05T10:37:29;1.02;;;0.52;;
70455;SDS011;57916;51.996;5.180;2022-08-05T10:40:32;2.20;;;0.65;;
70455;SDS011;57916;51.996;5.180;2022-08-05T10:43:07;2.97;;;0.50;;
70455;SDS011;57916;51.996;5.180;2022-08-05T10:46:02;4.43;;;0.63;;
70455;SDS011;57916;51.996;5.180;2022-08-05T10:48:38;4.28;;;0.55;;
70455;SDS011;57916;51.996;5.180;2022-08-05T10:51:23;3.50;;;0.57;;
70455;SDS011;57916;51.996;5.180;2022-08-05T10:53:58;2.85;;;0.60;;
70455;SDS011;57916;51.996;5.180;2022-08-05T10:56:53;4.40;;;0.60;;
70455;SDS011;57916;51.996;5.180;2022-08-05T10:59:26;1.48;;;0.60;;
70455;SDS011;57916;51.996;5.180;2022-08-05T11:02:14;1.97;;;0.40;;
70455;SDS011;57916;51.996;5.180;2022-08-05T11:05:08;2.50;;;0.30;;
70455;SDS011;57916;51.996;5.180;2022-08-05T11:07:54;1.00;;;0.40;;
70455;SDS011;57916;51.996;5.180;2022-08-05T11:10:35;0.90;;;0.30;;
70455;SDS011;57916;51.996;5.180;2022-08-05T11:13:37;3.10;;;0.50;;
70455;SDS011;57916;51.996;5.180;2022-08-05T11:16:23;4.10;;;0.60;;
70455;SDS011;57916;51.996;5.180;2022-08-05T11:19:26;2.60;;;0.30;;
70455;SDS011;57916;51.996;5.180;2022-08-05T11:23:08;1.45;;;0.40;;
70455;SDS011;57916;51.996;5.180;2022-08-05T11:33:38;5.30;;;0.40;;
70455;SDS011;57916;51.996;5.180;2022-08-05T11:36:14;3.80;;;0.45;;
70455;SDS011;57916;51.996;5.180;2022-08-05T11:39:04;14.40;;;2.15;;
70455;SDS011;57916;51.996;5.180;2022-08-05T11:41:34;5.22;;;1.05;;
70455;SDS011;57916;51.996;5.180;2022-08-05T11:44:21;4.75;;;0.75;;
70455;SDS011;57916;51.996;5.180;2022-08-05T11:47:19;1.80;;;0.50;;
70455;SDS011;57916;51.996;5.180;2022-08-05T11:50:07;1.95;;;0.50;;
70455;SDS011;57916;51.996;5.180;2022-08-05T11:52:34;3.03;;;0.40;;
70455;SDS011;57916;51.996;5.180;2022-08-05T11:55:01;1.40;;;0.40;;
70455;SDS011;57916;51.996;5.180;2022-08-05T11:57:33;2.20;;;0.40;;
70455;SDS011;57916;51.996;5.180;2022-08-05T12:00:26;1.20;;;0.45;;
70455;SDS011;57916;51.996;5.180;2022-08-05T12:02:55;1.55;;;0.30;;
70455;SDS011;57916;51.996;5.180;2022-08-05T12:05:26;1.10;;;0.30;;
70455;SDS011;57916;51.996;5.180;2022-08-05T12:08:05;0.55;;;0.35;;
70455;SDS011;57916;51.996;5.180;2022-08-05T12:10:36;3.10;;;0.40;;
70455;SDS011;57916;51.996;5.180;2022-08-05T12:13:12;1.85;;;0.30;;
70455;SDS011;57916;51.996;5.180;2022-08-05T12:15:44;2.72;;;0.50;;
70455;SDS011;57916;51.996;5.180;2022-08-05T12:18:18;2.17;;;0.30;;
70455;SDS011;57916;51.996;5.180;2022-08-05T12:21:17;10.35;;;0.65;;
70455;SDS011;57916;51.996;5.180;2022-08-05T12:23:53;1.00;;;0.30;;
70455;SDS011;57916;51.996;5.180;2022-08-05T12:31:47;2.15;;;0.40;;
70455;SDS011;57916;51.996;5.180;2022-08-05T12:34:23;3.40;;;0.32;;
70455;SDS011;57916;51.996;5.180;2022-08-05T12:36:57;3.60;;;0.50;;
70455;SDS011;57916;51.996;5.180;2022-08-05T12:39:28;2.33;;;0.50;;
70455;SDS011;57916;51.996;5.180;2022-08-05T12:42:08;2.22;;;0.32;;
70455;SDS011;57916;51.996;5.180;2022-08-05T12:44:43;1.90;;;0.38;;
70455;SDS011;57916;51.996;5.180;2022-08-05T12:47:10;2.28;;;0.43;;
70455;SDS011;57916;51.996;5.180;2022-08-05T12:49:43;1.10;;;0.40;;
70455;SDS011;57916;51.996;5.180;2022-08-05T12:52:31;0.90;;;0.40;;
70455;SDS011;57916;51.996;5.180;2022-08-05T12:55:17;1.80;;;0.40;;
70455;SDS011;57916;51.996;5.180;2022-08-05T12:57:48;30.65;;;1.42;;
70455;SDS011;57916;51.996;5.180;2022-08-05T13:00:40;1.33;;;0.30;;
70455;SDS011;57916;51.996;5.180;2022-08-05T13:03:29;1.52;;;0.40;;
70455;SDS011;57916;51.996;5.180;2022-08-05T13:05:58;3.85;;;0.52;;
70455;SDS011;57916;51.996;5.180;2022-08-05T13:08:29;4.00;;;0.43;;
70455;SDS011;57916;51.996;5.180;2022-08-05T13:11:01;0.90;;;0.38;;
70455;SDS011;57916;51.996;5.180;2022-08-05T13:13:29;4.47;;;0.40;;
70455;SDS011;57916;51.996;5.180;2022-08-05T13:16:17;8.03;;;0.60;;
70455;SDS011;57916;51.996;5.180;2022-08-05T13:18:55;1.50;;;0.40;;
70455;SDS011;57916;51.996;5.180;2022-08-05T13:21:24;2.92;;;0.57;;
70455;SDS011;57916;51.996;5.180;2022-08-05T13:24:03;3.08;;;0.47;;
70455;SDS011;57916;51.996;5.180;2022-08-05T13:26:34;1.35;;;0.30;;
70455;SDS011;57916;51.996;5.180;2022-08-05T13:29:01;1.40;;;0.30;;
70455;SDS011;57916;51.996;5.180;2022-08-05T13:31:30;1.00;;;0.40;;
70455;SDS011;57916;51.996;5.180;2022-08-05T13:34:17;1.58;;;0.30;;
70455;SDS011;57916;51.996;5.180;2022-08-05T13:36:51;2.60;;;0.30;;
70455;SDS011;57916;51.996;5.180;2022-08-05T13:39:18;1.87;;;0.30;;
70455;SDS011;57916;51.996;5.180;2022-08-05T13:42:06;0.45;;;0.30;;
70455;SDS011;57916;51.996;5.180;2022-08-05T13:44:40;0.77;;;0.30;;
70455;SDS011;57916;51.996;5.180;2022-08-05T13:47:11;1.95;;;0.50;;
70455;SDS011;57916;51.996;5.180;2022-08-05T13:49:59;1.30;;;0.40;;
70455;SDS011;57916;51.996;5.180;2022-08-05T13:52:31;1.73;;;0.20;;
70455;SDS011;57916;51.996;5.180;2022-08-05T13:55:01;2.40;;;0.50;;
70455;SDS011;57916;51.996;5.180;2022-08-05T13:57:33;2.30;;;0.40;;
70455;SDS011;57916;51.996;5.180;2022-08-05T14:00:18;1.70;;;0.45;;
70455;SDS011;57916;51.996;5.180;2022-08-05T14:02:53;2.47;;;0.30;;
70455;SDS011;57916;51.996;5.180;2022-08-05T14:05:21;4.80;;;0.30;;
70455;SDS011;57916;51.996;5.180;2022-08-05T14:08:08;0.80;;;0.30;;
70455;SDS011;57916;51.996;5.180;2022-08-05T14:10:46;0.55;;;0.20;;
70455;SDS011;57916;51.996;5.180;2022-08-05T14:13:14;1.60;;;0.50;;
70455;SDS011;57916;51.996;5.180;2022-08-05T14:15:41;2.55;;;0.55;;
70455;SDS011;57916;51.996;5.180;2022-08-05T14:18:28;7.15;;;0.63;;
70455;SDS011;57916;51.996;5.180;2022-08-05T14:20:55;12.43;;;0.70;;
70455;SDS011;57916;51.996;5.180;2022-08-05T14:23:25;20.70;;;0.90;;
70455;SDS011;57916;51.996;5.180;2022-08-05T14:26:01;1.10;;;0.43;;
70455;SDS011;57916;51.996;5.180;2022-08-05T14:28:30;3.88;;;0.63;;
70455;SDS011;57916;51.996;5.180;2022-08-05T14:30:57;1.70;;;0.38;;
70455;SDS011;57916;51.996;5.180;2022-08-05T14:33:26;1.08;;;0.30;;
70455;SDS011;57916;51.996;5.180;2022-08-05T14:36:13;1.83;;;0.30;;
70455;SDS011;57916;51.996;5.180;2022-08-05T14:38:40;6.50;;;0.40;;
70455;SDS011;57916;51.996;5.180;2022-08-05T14:41:07;1.65;;;0.40;;
70455;SDS011;57916;51.996;5.180;2022-08-05T14:43:35;0.80;;;0.30;;
70455;SDS011;57916;51.996;5.180;2022-08-05T14:46:23;1.50;;;0.45;;
70455;SDS011;57916;51.996;5.180;2022-08-05T14:48:55;2.40;;;0.50;;
70455;SDS011;57916;51.996;5.180;2022-08-05T14:51:32;0.90;;;0.30;;
70455;SDS011;57916;51.996;5.180;2022-08-05T14:54:00;0.70;;;0.40;;
70455;SDS011;57916;51.996;5.180;2022-08-05T14:56:47;4.47;;;0.35;;
70455;SDS011;57916;51.996;5.180;2022-08-05T14:59:16;5.10;;;0.50;;
70455;SDS011;57916;51.996;5.180;2022-08-05T15:01:46;5.95;;;0.50;;
70455;SDS011;57916;51.996;5.180;2022-08-05T15:04:15;2.20;;;0.45;;
70455;SDS011;57916;51.996;5.180;2022-08-05T15:06:47;1.35;;;0.40;;
70455;SDS011;57916;51.996;5.180;2022-08-05T15:09:17;3.87;;;0.70;;
70455;SDS011;57916;51.996;5.180;2022-08-05T15:12:05;6.40;;;0.52;;
70455;SDS011;57916;51.996;5.180;2022-08-05T15:14:36;3.42;;;0.50;;
70455;SDS011;57916;51.996;5.180;2022-08-05T15:17:19;4.18;;;0.60;;
70455;SDS011;57916;51.996;5.180;2022-08-05T15:20:06;1.25;;;0.40;;
70455;SDS011;57916;51.996;5.180;2022-08-05T15:22:44;3.33;;;0.50;;
70455;SDS011;57916;51.996;5.180;2022-08-05T15:25:19;3.25;;;0.45;;
70455;SDS011;57916;51.996;5.180;2022-08-05T15:28:06;4.83;;;0.60;;
70455;SDS011;57916;51.996;5.180;2022-08-05T15:30:38;3.27;;;0.70;;
70455;SDS011;57916;51.996;5.180;2022-08-05T15:33:08;1.38;;;0.32;;
70455;SDS011;57916;51.996;5.180;2022-08-05T15:35:36;2.92;;;0.40;;
70455;SDS011;57916;51.996;5.180;2022-08-05T15:38:10;4.00;;;0.50;;
70455;SDS011;57916;51.996;5.180;2022-08-05T15:40:57;1.55;;;0.50;;
70455;SDS011;57916;51.996;5.180;2022-08-05T15:43:44;4.60;;;0.40;;
70455;SDS011;57916;51.996;5.180;2022-08-05T15:46:12;5.07;;;0.40;;
70455;SDS011;57916;51.996;5.180;2022-08-05T15:48:40;1.92;;;0.30;;
70455;SDS011;57916;51.996;5.180;2022-08-05T15:51:24;2.30;;;0.50;;
70455;SDS011;57916;51.996;5.180;2022-08-05T15:54:12;3.22;;;0.50;;
70455;SDS011;57916;51.996;5.180;2022-08-05T15:56:40;3.92;;;0.65;;
70455;SDS011;57916;51.996;5.180;2022-08-05T15:59:08;4.30;;;0.50;;
70455;SDS011;57916;51.996;5.180;2022-08-05T16:01:48;2.15;;;0.50;;
70455;SDS011;57916;51.996;5.180;2022-08-05T16:04:19;3.33;;;0.60;;
70455;SDS011;57916;51.996;5.180;2022-08-05T16:06:51;1.38;;;0.60;;
70455;SDS011;57916;51.996;5.180;2022-08-05T16:09:21;3.55;;;0.50;;
70455;SDS011;57916;51.996;5.180;2022-08-05T16:11:49;2.40;;;0.47;;
70455;SDS011;57916;51.996;5.180;2022-08-05T16:14:19;1.20;;;0.60;;
70455;SDS011;57916;51.996;5.180;2022-08-05T16:16:47;3.03;;;0.40;;